createdAt,value
2017-04-30T00:01:44.040Z,70.44
2017-04-30T00:04:10.410Z,68.47
2017-04-30T00:06:36.806Z,68.33
2017-04-30T00:09:03.236Z,67.87
2017-04-30T00:11:29.649Z,69.80
2017-04-30T00:13:56.000Z,71.36
2017-04-30T00:16:22.385Z,67.70
2017-04-30T00:18:48.757Z,72.58
2017-04-30T00:21:15.291Z,68.83
2017-04-30T00:23:41.828Z,70.52
2017-04-30T00:26:08.214Z,71.51
2017-04-30T00:28:34.580Z,69.89
2017-04-30T00:31:00.944Z,72.52
2017-04-30T00:33:27.548Z,69.54
2017-04-30T00:35:54.095Z,68.02
2017-04-30T00:38:20.682Z,73.62
2017-04-30T00:40:47.064Z,65.87
2017-04-30T00:43:14.910Z,74.20
2017-04-30T00:45:41.316Z,72.36
2017-04-30T00:48:08.164Z,67.22
2017-04-30T00:50:34.518Z,66.44
2017-04-30T00:53:01.384Z,64.97
2017-04-30T00:55:27.714Z,70.71
2017-04-30T00:57:54.350Z,74.97
2017-04-30T01:00:20.785Z,74.47
2017-04-30T01:02:47.137Z,68.37
2017-04-30T01:05:13.504Z,72.61
2017-04-30T01:07:39.915Z,70.55
2017-04-30T01:10:06.244Z,70.92
2017-04-30T01:12:32.604Z,70.37
2017-04-30T01:14:58.981Z,71.94
2017-04-30T01:17:25.512Z,69.88
2017-04-30T01:19:51.845Z,73.18
2017-04-30T01:22:18.222Z,75.26
2017-04-30T01:24:44.570Z,74.77
2017-04-30T01:27:11.113Z,73.04
2017-04-30T01:29:37.433Z,70.03
2017-04-30T01:32:03.873Z,73.21
2017-04-30T01:34:30.185Z,72.01
2017-04-30T01:36:56.848Z,73.27
2017-04-30T01:39:23.189Z,71.67
2017-04-30T01:41:50.045Z,70.98
2017-04-30T01:44:18.154Z,74.90
2017-04-30T01:46:46.237Z,72.57
2017-04-30T01:49:15.119Z,74.85
2017-04-30T01:51:43.224Z,73.61
2017-04-30T01:54:11.668Z,72.03
2017-04-30T01:56:39.278Z,75.35
2017-04-30T01:59:07.155Z,75.90
2017-04-30T02:01:36.795Z,77.27
2017-04-30T02:04:03.171Z,77.95
2017-04-30T02:06:29.486Z,77.82
2017-04-30T02:08:55.786Z,76.78
2017-04-30T02:11:22.133Z,76.30
2017-04-30T02:13:48.481Z,74.56
2017-04-30T02:16:14.811Z,73.97
2017-04-30T02:18:41.104Z,74.15
2017-04-30T02:21:07.485Z,75.51
2017-04-30T02:23:33.816Z,76.60
2017-04-30T02:26:00.137Z,75.54
2017-04-30T02:28:26.442Z,72.23
2017-04-30T02:30:52.799Z,70.68
2017-04-30T02:33:19.131Z,69.31
2017-04-30T02:35:45.489Z,73.14
2017-04-30T02:38:11.839Z,72.73
2017-04-30T02:40:38.368Z,76.51
2017-04-30T02:43:04.691Z,75.57
2017-04-30T02:45:31.009Z,75.30
2017-04-30T02:47:57.555Z,76.34
2017-04-30T02:50:24.010Z,75.82
2017-04-30T02:52:50.360Z,72.36
2017-04-30T02:55:16.720Z,73.31
2017-04-30T02:57:43.041Z,76.17
2017-04-30T03:00:09.543Z,76.90
2017-04-30T03:02:35.929Z,74.84
2017-04-30T03:05:02.305Z,73.58
2017-04-30T03:07:28.616Z,76.20
2017-04-30T03:09:54.944Z,76.97
2017-04-30T03:12:21.264Z,77.99
2017-04-30T03:14:47.621Z,79.54
2017-04-30T03:17:13.992Z,76.01
2017-04-30T03:19:40.331Z,76.84
2017-04-30T03:22:06.653Z,74.44
2017-04-30T03:24:33.025Z,77.14
2017-04-30T03:26:59.362Z,72.33
2017-04-30T03:29:25.721Z,75.01
2017-04-30T03:31:52.057Z,72.42
2017-04-30T03:34:18.425Z,77.12
2017-04-30T03:36:44.853Z,76.43
2017-04-30T03:39:23.286Z,75.58
2017-04-30T03:42:01.721Z,73.94
2017-04-30T03:44:40.317Z,78.51
2017-04-30T03:47:18.703Z,73.14
2017-04-30T03:49:57.211Z,77.96
2017-04-30T03:52:35.616Z,72.53
2017-04-30T03:55:14.102Z,78.34
2017-04-30T03:57:52.481Z,75.95
2017-04-30T04:00:31.148Z,75.75
2017-04-30T04:03:09.568Z,78.28
2017-04-30T04:05:47.978Z,80.30
2017-04-30T04:08:26.417Z,79.52
2017-04-30T04:11:04.745Z,74.99
2017-04-30T04:13:43.050Z,78.66
2017-04-30T04:16:21.612Z,77.27
2017-04-30T04:19:00.121Z,78.87
2017-04-30T04:21:38.565Z,78.24
2017-04-30T04:24:17.066Z,80.32
2017-04-30T04:26:55.541Z,78.63
2017-04-30T04:29:34.037Z,79.33
2017-04-30T04:32:12.504Z,77.52
2017-04-30T04:34:50.841Z,80.03
2017-04-30T04:37:29.344Z,79.02
2017-04-30T04:40:07.845Z,78.50
2017-04-30T04:42:46.262Z,76.52
2017-04-30T04:45:24.664Z,79.00
2017-04-30T04:48:03.462Z,79.93
2017-04-30T04:50:42.026Z,79.26
2017-04-30T04:53:20.502Z,79.25
2017-04-30T04:55:59.071Z,77.79
2017-04-30T04:58:37.458Z,73.83
2017-04-30T05:01:15.875Z,79.18
2017-04-30T05:03:54.399Z,79.32
2017-04-30T05:06:32.981Z,77.98
2017-04-30T05:09:11.342Z,79.71
2017-04-30T05:11:49.814Z,80.06
2017-04-30T05:14:28.216Z,79.50
2017-04-30T05:17:06.766Z,75.68
2017-04-30T05:19:45.293Z,77.56
2017-04-30T05:22:23.896Z,75.21
2017-04-30T05:25:02.362Z,75.80
2017-04-30T05:27:40.754Z,75.50
2017-04-30T05:30:19.187Z,74.68
2017-04-30T05:32:57.610Z,75.35
2017-04-30T05:35:36.010Z,75.82
2017-04-30T05:38:14.432Z,74.18
2017-04-30T05:40:52.866Z,75.51
2017-04-30T05:43:31.192Z,74.70
2017-04-30T05:46:09.668Z,76.10
2017-04-30T05:48:48.047Z,75.90
2017-04-30T05:51:26.390Z,75.07
2017-04-30T05:54:04.878Z,73.04
2017-04-30T05:56:43.423Z,72.51
2017-04-30T05:59:21.806Z,75.04
2017-04-30T06:02:00.446Z,74.57
2017-04-30T06:04:38.933Z,71.10
2017-04-30T06:07:17.379Z,73.07
2017-04-30T06:09:55.817Z,73.88
2017-04-30T06:12:34.466Z,74.65
2017-04-30T06:15:13.003Z,74.06
2017-04-30T06:17:51.587Z,73.25
2017-04-30T06:20:30.157Z,72.20
2017-04-30T06:23:08.590Z,69.10
2017-04-30T06:25:47.138Z,69.08
2017-04-30T06:28:25.565Z,68.47
2017-04-30T06:31:04.699Z,68.16
2017-04-30T06:33:43.105Z,68.88
2017-04-30T06:36:21.570Z,65.57
2017-04-30T06:39:00.076Z,64.74
2017-04-30T06:41:38.442Z,64.74
2017-04-30T06:44:17.023Z,64.05
2017-04-30T06:46:55.551Z,63.54
2017-04-30T06:49:34.015Z,64.72
2017-04-30T06:52:12.406Z,62.28
2017-04-30T06:54:50.746Z,61.35
2017-04-30T06:57:29.366Z,61.74
2017-04-30T07:00:07.781Z,60.53
2017-04-30T07:02:46.253Z,60.63
2017-04-30T07:05:24.753Z,61.54
2017-04-30T07:08:03.164Z,61.50
2017-04-30T07:10:41.512Z,59.75
2017-04-30T07:13:19.855Z,59.57
2017-04-30T07:15:58.231Z,59.40
2017-04-30T07:18:36.695Z,58.43
2017-04-30T07:21:15.081Z,57.81
2017-04-30T07:23:53.533Z,56.37
2017-04-30T07:26:31.875Z,56.69
2017-04-30T07:29:10.224Z,56.35
2017-04-30T07:31:48.822Z,55.66
2017-04-30T07:34:27.257Z,53.83
2017-04-30T07:37:05.814Z,53.67
2017-04-30T07:39:44.280Z,54.84
2017-04-30T07:42:22.787Z,55.58
2017-04-30T07:44:49.164Z,53.76
2017-04-30T07:47:15.493Z,54.32
2017-04-30T07:49:41.876Z,52.13
2017-04-30T07:52:08.222Z,51.97
2017-04-30T07:54:34.542Z,53.65
2017-04-30T07:57:00.880Z,53.79
2017-04-30T07:59:27.346Z,51.17
2017-04-30T08:01:53.697Z,52.60
2017-04-30T08:04:20.031Z,51.80
2017-04-30T08:06:46.381Z,51.33
2017-04-30T08:09:12.791Z,51.58
2017-04-30T08:11:39.136Z,50.63
2017-04-30T08:14:05.465Z,47.81
2017-04-30T08:16:31.819Z,49.77
2017-04-30T08:18:58.166Z,47.72
2017-04-30T08:21:24.492Z,47.63
2017-04-30T08:23:50.798Z,48.30
2017-04-30T08:26:17.135Z,48.35
2017-04-30T08:28:43.573Z,48.05
2017-04-30T08:31:09.919Z,46.03
2017-04-30T08:33:36.219Z,46.41
2017-04-30T08:36:02.554Z,44.39
2017-04-30T08:38:28.909Z,44.83
2017-04-30T08:40:55.283Z,43.69
2017-04-30T08:43:21.631Z,43.95
2017-04-30T08:45:48.080Z,44.04
2017-04-30T08:48:14.392Z,42.87
2017-04-30T08:50:40.732Z,43.67
2017-04-30T08:53:07.059Z,41.42
2017-04-30T08:55:33.403Z,42.80
2017-04-30T08:57:59.725Z,39.77
2017-04-30T09:00:26.025Z,41.07
2017-04-30T09:02:52.379Z,40.13
2017-04-30T09:05:18.709Z,40.23
2017-04-30T09:07:45.048Z,38.84
2017-04-30T09:10:11.381Z,39.75
2017-04-30T09:12:37.716Z,39.73
2017-04-30T09:15:04.163Z,39.26
2017-04-30T09:17:30.442Z,37.76
2017-04-30T09:19:56.769Z,37.80
2017-04-30T09:22:23.118Z,38.37
2017-04-30T09:24:49.584Z,36.99
2017-04-30T09:27:15.891Z,36.89
2017-04-30T09:29:42.232Z,35.53
2017-04-30T09:32:08.561Z,36.48
2017-04-30T09:34:34.960Z,36.96
2017-04-30T09:37:01.294Z,35.73
2017-04-30T09:39:27.649Z,35.40
2017-04-30T09:41:53.998Z,36.88
2017-04-30T09:44:20.317Z,34.14
2017-04-30T09:46:46.685Z,33.12
2017-04-30T09:49:13.034Z,35.41
2017-04-30T09:51:39.445Z,37.67
2017-04-30T09:54:05.793Z,35.41
2017-04-30T09:56:32.125Z,36.24
2017-04-30T09:58:58.588Z,34.70
2017-04-30T10:01:24.995Z,35.57
2017-04-30T10:03:51.347Z,34.31
2017-04-30T10:06:17.718Z,33.43
2017-04-30T10:08:44.251Z,33.89
2017-04-30T10:11:10.719Z,33.68
2017-04-30T10:13:37.645Z,33.88
2017-04-30T10:16:04.080Z,33.34
2017-04-30T10:18:30.650Z,33.92
2017-04-30T10:20:56.991Z,33.54
2017-04-30T10:23:23.322Z,31.84
2017-04-30T10:25:49.702Z,32.12
2017-04-30T10:28:16.241Z,31.72
2017-04-30T10:30:42.558Z,31.46
2017-04-30T10:33:08.886Z,30.91
2017-04-30T10:35:35.258Z,32.27
2017-04-30T10:38:01.603Z,31.22
2017-04-30T10:40:27.936Z,33.15
2017-04-30T10:42:54.267Z,32.28
2017-04-30T10:45:20.635Z,31.57
2017-04-30T10:47:46.959Z,31.73
2017-04-30T10:50:13.314Z,32.34
2017-04-30T10:52:39.655Z,31.66
2017-04-30T10:55:06.170Z,31.14
2017-04-30T10:57:32.511Z,32.08
2017-04-30T10:59:58.848Z,31.78
2017-04-30T11:02:25.199Z,30.99
2017-04-30T11:04:51.665Z,34.04
2017-04-30T11:07:18.949Z,32.37
2017-04-30T11:09:45.279Z,29.66
2017-04-30T11:12:11.774Z,30.36
2017-04-30T11:14:38.097Z,30.07
2017-04-30T11:17:04.448Z,30.97
2017-04-30T11:19:30.762Z,29.76
2017-04-30T11:21:57.358Z,30.85
2017-04-30T11:24:23.698Z,29.26
2017-04-30T11:26:50.042Z,30.07
2017-04-30T11:29:16.393Z,30.22
2017-04-30T11:31:42.744Z,30.68
2017-04-30T11:34:09.095Z,29.53
2017-04-30T11:36:35.441Z,31.08
2017-04-30T11:39:01.764Z,31.48
2017-04-30T11:41:28.090Z,30.62
2017-04-30T11:43:54.435Z,29.08
2017-04-30T11:46:20.780Z,30.30
2017-04-30T11:48:47.123Z,30.72
2017-04-30T11:51:13.437Z,30.48
2017-04-30T11:53:39.783Z,30.11
2017-04-30T11:56:06.162Z,31.27
2017-04-30T11:58:32.643Z,31.49
2017-04-30T12:00:59.001Z,30.49
2017-04-30T12:03:25.317Z,28.80
2017-04-30T12:05:51.654Z,29.17
2017-04-30T12:08:18.138Z,29.90
2017-04-30T12:10:44.481Z,30.24
2017-04-30T12:13:10.819Z,28.97
2017-04-30T12:15:37.272Z,32.53
2017-04-30T12:18:03.730Z,31.64
2017-04-30T12:20:30.640Z,32.53
2017-04-30T12:22:56.934Z,31.39
2017-04-30T12:25:23.340Z,30.45
2017-04-30T12:27:49.690Z,31.12
2017-04-30T12:30:16.016Z,31.21
2017-04-30T12:32:42.377Z,30.02
2017-04-30T12:35:08.828Z,29.50
2017-04-30T12:37:35.208Z,30.44
2017-04-30T12:40:01.530Z,30.75
2017-04-30T12:42:27.851Z,28.64
2017-04-30T12:44:54.278Z,29.74
2017-04-30T12:47:20.665Z,29.55
2017-04-30T12:49:46.986Z,30.10
2017-04-30T12:52:13.322Z,29.79
2017-04-30T12:54:39.627Z,30.45
2017-04-30T12:57:05.965Z,29.80
2017-04-30T12:59:32.277Z,29.49
2017-04-30T13:01:58.617Z,29.67
2017-04-30T13:04:25.128Z,28.48
2017-04-30T13:06:51.512Z,28.58
2017-04-30T13:09:17.933Z,29.35
2017-04-30T13:11:44.285Z,29.37
2017-04-30T13:14:10.656Z,29.74
2017-04-30T13:16:37.033Z,28.67
2017-04-30T13:19:03.527Z,29.23
2017-04-30T13:21:29.894Z,28.63
2017-04-30T13:23:56.275Z,27.67
2017-04-30T13:26:22.639Z,28.67
2017-04-30T13:28:49.006Z,28.91
2017-04-30T13:31:15.372Z,28.85
2017-04-30T13:33:41.721Z,29.54
2017-04-30T13:36:08.050Z,28.90
2017-04-30T13:38:34.384Z,27.47
2017-04-30T13:41:00.728Z,27.64
2017-04-30T13:43:27.067Z,27.24
2017-04-30T13:45:53.382Z,27.09
2017-04-30T13:48:19.713Z,27.49
2017-04-30T13:50:46.049Z,27.39
2017-04-30T13:53:12.558Z,28.03
2017-04-30T13:55:38.885Z,28.97
2017-04-30T13:58:05.208Z,26.06
2017-04-30T14:00:31.639Z,27.22
2017-04-30T14:02:57.966Z,26.84
2017-04-30T14:05:24.333Z,25.75
2017-04-30T14:07:50.662Z,26.61
2017-04-30T14:10:17.421Z,25.91
2017-04-30T14:12:43.735Z,25.39
2017-04-30T14:15:10.107Z,25.90
2017-04-30T14:17:36.603Z,26.78
2017-04-30T14:20:02.959Z,26.81
2017-04-30T14:22:29.304Z,27.38
2017-04-30T14:24:56.172Z,28.18
2017-04-30T14:27:22.563Z,28.23
2017-04-30T14:29:48.927Z,27.17
2017-04-30T14:32:15.457Z,26.98
2017-04-30T14:34:42.275Z,26.46
2017-04-30T14:37:08.624Z,27.04
2017-04-30T14:39:34.998Z,26.33
2017-04-30T14:42:01.352Z,26.26
2017-04-30T14:44:27.733Z,26.95
2017-04-30T14:46:54.075Z,26.61
2017-04-30T14:49:20.428Z,26.92
2017-04-30T14:51:47.025Z,27.62
2017-04-30T14:54:13.379Z,25.86
2017-04-30T14:56:40.376Z,26.73
2017-04-30T14:59:06.805Z,25.71
2017-04-30T15:01:33.111Z,26.68
2017-04-30T15:03:59.461Z,26.19
2017-04-30T15:06:25.793Z,26.18
2017-04-30T15:08:52.353Z,26.95
2017-04-30T15:11:18.707Z,26.65
2017-04-30T15:13:45.053Z,26.57
2017-04-30T15:16:11.383Z,26.40
2017-04-30T15:18:37.898Z,27.20
2017-04-30T15:21:04.222Z,26.87
2017-04-30T15:23:30.580Z,27.03
2017-04-30T15:25:56.929Z,27.03
2017-04-30T15:28:23.387Z,25.99
2017-04-30T15:30:49.846Z,25.60
2017-04-30T15:33:16.234Z,25.14
2017-04-30T15:35:42.580Z,27.00
2017-04-30T15:38:08.913Z,26.62
2017-04-30T15:40:35.401Z,26.48
2017-04-30T15:43:01.748Z,26.33
2017-04-30T15:45:28.386Z,26.85
2017-04-30T15:47:54.745Z,26.61
2017-04-30T15:50:21.085Z,26.19
2017-04-30T15:52:47.405Z,26.46
2017-04-30T15:55:13.891Z,26.63
2017-04-30T15:57:40.226Z,26.53
2017-04-30T16:00:07.014Z,26.73
2017-04-30T16:02:33.689Z,27.12
2017-04-30T16:04:59.993Z,26.54
2017-04-30T16:07:26.374Z,27.18
2017-04-30T16:09:52.724Z,26.58
2017-04-30T16:12:19.212Z,26.77
2017-04-30T16:14:45.546Z,27.05
2017-04-30T16:17:11.866Z,27.05
2017-04-30T16:19:38.232Z,28.00
2017-04-30T16:22:04.554Z,27.64
2017-04-30T16:24:30.869Z,27.19
2017-04-30T16:26:57.199Z,28.24
2017-04-30T16:29:23.533Z,27.71
2017-04-30T16:31:49.881Z,27.20
2017-04-30T16:34:16.232Z,27.67
2017-04-30T16:36:42.573Z,27.30
2017-04-30T16:39:08.884Z,27.34
2017-04-30T16:41:35.219Z,26.92
2017-04-30T16:44:01.565Z,27.46
2017-04-30T16:46:27.905Z,27.75
2017-04-30T16:48:54.569Z,27.45
2017-04-30T16:51:20.898Z,27.80
2017-04-30T16:53:47.185Z,27.70
2017-04-30T16:56:13.515Z,27.77
2017-04-30T16:58:39.977Z,27.53
2017-04-30T17:01:06.293Z,27.74
2017-04-30T17:03:32.652Z,28.23
2017-04-30T17:05:58.976Z,28.08
2017-04-30T17:08:25.416Z,28.08
2017-04-30T17:10:51.733Z,28.15
2017-04-30T17:13:18.084Z,28.03
2017-04-30T17:15:44.417Z,27.96
2017-04-30T17:18:10.749Z,28.28
2017-04-30T17:20:37.169Z,27.97
2017-04-30T17:23:03.506Z,28.41
2017-04-30T17:25:29.824Z,29.38
2017-04-30T17:27:56.133Z,28.63
2017-04-30T17:30:22.452Z,28.90
2017-04-30T17:32:48.818Z,28.46
2017-04-30T17:35:15.296Z,28.53
2017-04-30T17:37:41.599Z,28.15
2017-04-30T17:40:07.968Z,29.70
2017-04-30T17:42:34.293Z,29.12
2017-04-30T17:45:00.900Z,28.82
2017-04-30T17:47:27.224Z,29.00
2017-04-30T17:49:53.542Z,29.43
2017-04-30T17:52:19.869Z,29.17
2017-04-30T17:54:47.087Z,29.82
2017-04-30T17:57:13.418Z,29.97
2017-04-30T17:59:39.764Z,30.01
2017-04-30T18:02:06.219Z,29.82
2017-04-30T18:04:32.581Z,30.07
2017-04-30T18:06:58.921Z,30.33
2017-04-30T18:09:25.247Z,30.46
2017-04-30T18:11:51.561Z,31.02
2017-04-30T18:14:17.903Z,30.68
2017-04-30T18:16:44.281Z,30.58
2017-04-30T18:19:10.616Z,30.78
2017-04-30T18:21:36.922Z,31.06
2017-04-30T18:24:03.260Z,31.26
2017-04-30T18:26:29.598Z,31.31
2017-04-30T18:28:56.793Z,32.40
2017-04-30T18:31:23.198Z,32.79
2017-04-30T18:33:49.517Z,34.52
2017-04-30T18:36:15.859Z,33.68
2017-04-30T18:38:42.185Z,33.45
2017-04-30T18:41:09.136Z,33.86
2017-04-30T18:43:35.478Z,32.93
2017-04-30T18:46:02.080Z,33.25
2017-04-30T18:48:28.421Z,33.08
2017-04-30T18:50:54.771Z,33.00
2017-04-30T18:53:21.111Z,33.02
2017-04-30T18:55:47.591Z,33.09
2017-04-30T18:58:13.930Z,33.30
2017-04-30T19:00:40.277Z,32.62
2017-04-30T19:03:06.593Z,33.28
2017-04-30T19:05:33.008Z,33.45
2017-04-30T19:07:59.349Z,33.09
2017-04-30T19:10:25.670Z,33.68
2017-04-30T19:12:51.982Z,33.65
2017-04-30T19:15:18.299Z,34.17
2017-04-30T19:17:44.612Z,34.78
2017-04-30T19:20:10.951Z,34.25
2017-04-30T19:22:37.273Z,34.52
2017-04-30T19:25:03.615Z,35.61
2017-04-30T19:27:29.959Z,35.91
2017-04-30T19:29:56.295Z,35.91
2017-04-30T19:32:22.618Z,36.54
2017-04-30T19:34:48.980Z,36.64
2017-04-30T19:37:15.328Z,36.30
2017-04-30T19:39:41.664Z,36.64
2017-04-30T19:42:08.126Z,36.48
2017-04-30T19:44:34.484Z,36.29
2017-04-30T19:47:00.831Z,36.72
2017-04-30T19:49:27.162Z,37.32
2017-04-30T19:51:53.574Z,37.22
2017-04-30T19:54:19.891Z,37.97
2017-04-30T19:56:46.263Z,38.43
2017-04-30T19:59:13.112Z,38.11
2017-04-30T20:01:39.414Z,38.51
2017-04-30T20:04:05.738Z,38.14
2017-04-30T20:06:32.067Z,38.39
2017-04-30T20:08:58.375Z,37.99
2017-04-30T20:11:24.716Z,39.91
2017-04-30T20:13:51.060Z,39.87
2017-04-30T20:16:17.412Z,40.56
2017-04-30T20:18:43.903Z,40.59
2017-04-30T20:21:10.245Z,40.35
2017-04-30T20:23:36.573Z,40.92
2017-04-30T20:26:02.928Z,41.57
2017-04-30T20:28:29.389Z,41.52
2017-04-30T20:30:55.726Z,41.44
2017-04-30T20:33:22.043Z,40.53
2017-04-30T20:35:48.386Z,40.34
2017-04-30T20:38:14.916Z,41.33
2017-04-30T20:40:41.245Z,42.76
2017-04-30T20:43:07.592Z,41.30
2017-04-30T20:45:33.946Z,41.65
2017-04-30T20:48:00.270Z,42.26
2017-04-30T20:50:26.585Z,42.85
2017-04-30T20:52:52.945Z,42.16
2017-04-30T20:55:19.247Z,43.30
2017-04-30T20:57:45.592Z,42.23
2017-04-30T21:00:11.918Z,42.23
2017-04-30T21:02:38.298Z,42.60
2017-04-30T21:05:04.777Z,42.41
2017-04-30T21:07:31.167Z,43.17
2017-04-30T21:09:57.495Z,43.15
2017-04-30T21:12:23.811Z,42.35
2017-04-30T21:14:50.454Z,43.50
2017-04-30T21:17:16.860Z,43.25
2017-04-30T21:19:43.185Z,42.87
2017-04-30T21:22:09.521Z,43.17
2017-04-30T21:24:35.901Z,42.95
2017-04-30T21:27:02.224Z,42.70
2017-04-30T21:29:28.606Z,43.05
2017-04-30T21:31:54.895Z,43.06
2017-04-30T21:34:21.229Z,43.38
2017-04-30T21:36:49.155Z,43.54
2017-04-30T21:39:16.424Z,43.87
2017-04-30T21:41:42.789Z,44.63
2017-04-30T21:44:09.108Z,44.45
2017-04-30T21:46:35.488Z,44.92
2017-04-30T21:49:01.859Z,44.00
2017-04-30T21:51:28.187Z,43.79
2017-04-30T21:53:54.507Z,44.82
2017-04-30T21:56:20.932Z,44.07
2017-04-30T21:58:47.281Z,45.69
2017-04-30T22:01:13.633Z,45.00
2017-04-30T22:03:39.986Z,45.74
2017-04-30T22:06:06.484Z,45.66
2017-04-30T22:08:32.814Z,45.68
2017-04-30T22:10:59.142Z,45.73
2017-04-30T22:13:25.470Z,45.89
2017-04-30T22:15:51.820Z,46.50
2017-04-30T22:18:18.840Z,46.32
2017-04-30T22:20:45.222Z,46.95
2017-04-30T22:23:11.729Z,46.84
2017-04-30T22:25:38.085Z,46.98
2017-04-30T22:28:04.411Z,47.81
2017-04-30T22:30:30.734Z,47.19
2017-04-30T22:32:57.066Z,47.55
2017-04-30T22:35:23.391Z,47.49
2017-04-30T22:37:49.729Z,47.63
2017-04-30T22:40:16.227Z,47.86
2017-04-30T22:42:42.568Z,47.84
2017-04-30T22:45:08.906Z,47.33
2017-04-30T22:47:35.268Z,47.71
2017-04-30T22:50:01.765Z,47.85
2017-04-30T22:52:28.111Z,47.90
2017-04-30T22:54:54.459Z,48.33
2017-04-30T22:57:20.812Z,47.45
2017-04-30T22:59:47.201Z,47.90
2017-04-30T23:02:13.553Z,47.91
2017-04-30T23:04:39.873Z,48.45
2017-04-30T23:07:06.217Z,48.76
2017-04-30T23:09:32.581Z,49.03
2017-04-30T23:11:58.913Z,49.46
2017-04-30T23:14:25.276Z,48.79
2017-04-30T23:16:51.753Z,49.24
2017-04-30T23:19:18.066Z,49.75
2017-04-30T23:21:44.394Z,48.58
2017-04-30T23:24:10.721Z,50.58
2017-04-30T23:26:37.281Z,49.64
2017-04-30T23:29:03.636Z,50.53
2017-04-30T23:31:29.967Z,49.72
2017-04-30T23:33:56.306Z,50.36
2017-04-30T23:36:22.682Z,50.71
2017-04-30T23:38:49.029Z,50.61
2017-04-30T23:41:15.367Z,50.38
2017-04-30T23:43:41.674Z,50.91
2017-04-30T23:46:08.022Z,50.95
2017-04-30T23:48:34.382Z,50.88
2017-04-30T23:51:00.776Z,51.93
2017-04-30T23:53:27.294Z,51.09
2017-04-30T23:55:53.644Z,50.68
2017-04-30T23:58:19.999Z,51.18
